sensor_id;sensor_type;location;lat;lon;timestamp;P1;durP1;ratioP1;P2;durP2;ratioP2
50549;SDS011;36505;52.512;13.460;2023-05-10T00:00:26;7.65;;;5.22;;
50549;SDS011;36505;52.512;13.460;2023-05-10T00:02:51;6.30;;;4.40;;
50549;SDS011;36505;52.512;13.460;2023-05-10T00:05:17;7.88;;;4.13;;
50549;SDS011;36505;52.512;13.460;2023-05-10T00:07:43;13.80;;;4.60;;
50549;SDS011;36505;52.512;13.460;2023-05-10T00:10:11;7.40;;;4.82;;
50549;SDS011;36505;52.512;13.460;2023-05-10T00:12:37;8.85;;;4.53;;
50549;SDS011;36505;52.512;13.460;2023-05-10T00:15:03;12.93;;;4.95;;
50549;SDS011;36505;52.512;13.460;2023-05-10T00:17:29;10.63;;;4.70;;
50549;SDS011;36505;52.512;13.460;2023-05-10T00:19:54;10.43;;;5.25;;
50549;SDS011;36505;52.512;13.460;2023-05-10T00:22:19;9.40;;;5.13;;
50549;SDS011;36505;52.512;13.460;2023-05-10T00:24:45;6.95;;;4.32;;
50549;SDS011;36505;52.512;13.460;2023-05-10T00:27:11;14.23;;;5.65;;
50549;SDS011;36505;52.512;13.460;2023-05-10T00:29:36;9.18;;;5.53;;
50549;SDS011;36505;52.512;13.460;2023-05-10T00:32:02;11.15;;;5.05;;
50549;SDS011;36505;52.512;13.460;2023-05-10T00:34:27;9.02;;;4.80;;
50549;SDS011;36505;52.512;13.460;2023-05-10T00:36:53;12.48;;;4.47;;
50549;SDS011;36505;52.512;13.460;2023-05-10T00:39:18;9.00;;;5.10;;
50549;SDS011;36505;52.512;13.460;2023-05-10T00:41:44;10.18;;;5.00;;
50549;SDS011;36505;52.512;13.460;2023-05-10T00:44:10;8.60;;;4.72;;
50549;SDS011;36505;52.512;13.460;2023-05-10T00:46:35;9.32;;;5.88;;
50549;SDS011;36505;52.512;13.460;2023-05-10T00:49:01;8.07;;;4.93;;
50549;SDS011;36505;52.512;13.460;2023-05-10T00:51:27;7.43;;;4.72;;
50549;SDS011;36505;52.512;13.460;2023-05-10T00:53:52;10.68;;;4.43;;
50549;SDS011;36505;52.512;13.460;2023-05-10T00:56:18;8.57;;;4.82;;
50549;SDS011;36505;52.512;13.460;2023-05-10T00:58:47;9.48;;;4.75;;
50549;SDS011;36505;52.512;13.460;2023-05-10T01:01:13;11.07;;;4.65;;
50549;SDS011;36505;52.512;13.460;2023-05-10T01:03:39;9.02;;;4.82;;
50549;SDS011;36505;52.512;13.460;2023-05-10T01:06:05;7.78;;;5.13;;
50549;SDS011;36505;52.512;13.460;2023-05-10T01:08:31;7.45;;;4.68;;
50549;SDS011;36505;52.512;13.460;2023-05-10T01:10:57;8.15;;;5.15;;
50549;SDS011;36505;52.512;13.460;2023-05-10T01:13:30;10.60;;;4.70;;
50549;SDS011;36505;52.512;13.460;2023-05-10T01:15:57;7.63;;;4.72;;
50549;SDS011;36505;52.512;13.460;2023-05-10T01:18:23;9.27;;;4.50;;
50549;SDS011;36505;52.512;13.460;2023-05-10T01:20:53;8.98;;;4.90;;
50549;SDS011;36505;52.512;13.460;2023-05-10T01:43:24;8.05;;;5.18;;
50549;SDS011;36505;52.512;13.460;2023-05-10T01:48:40;7.57;;;4.93;;
50549;SDS011;36505;52.512;13.460;2023-05-10T01:51:13;8.68;;;5.03;;
50549;SDS011;36505;52.512;13.460;2023-05-10T01:53:42;6.90;;;4.40;;
50549;SDS011;36505;52.512;13.460;2023-05-10T01:56:09;7.10;;;4.93;;
50549;SDS011;36505;52.512;13.460;2023-05-10T01:58:36;9.45;;;4.72;;
50549;SDS011;36505;52.512;13.460;2023-05-10T02:01:05;7.32;;;5.00;;
50549;SDS011;36505;52.512;13.460;2023-05-10T02:03:32;6.88;;;4.85;;
50549;SDS011;36505;52.512;13.460;2023-05-10T02:06:00;7.45;;;4.50;;
50549;SDS011;36505;52.512;13.460;2023-05-10T02:08:28;10.27;;;5.20;;
50549;SDS011;36505;52.512;13.460;2023-05-10T02:10:55;8.35;;;5.55;;
50549;SDS011;36505;52.512;13.460;2023-05-10T02:13:21;8.85;;;5.15;;
50549;SDS011;36505;52.512;13.460;2023-05-10T02:15:49;12.70;;;4.65;;
50549;SDS011;36505;52.512;13.460;2023-05-10T02:18:16;14.27;;;5.40;;
50549;SDS011;36505;52.512;13.460;2023-05-10T02:20:44;7.82;;;4.85;;
50549;SDS011;36505;52.512;13.460;2023-05-10T02:23:11;9.23;;;4.78;;
50549;SDS011;36505;52.512;13.460;2023-05-10T02:25:38;8.77;;;5.25;;
50549;SDS011;36505;52.512;13.460;2023-05-10T02:28:05;8.75;;;4.90;;
50549;SDS011;36505;52.512;13.460;2023-05-10T02:30:32;7.25;;;4.70;;
50549;SDS011;36505;52.512;13.460;2023-05-10T02:32:59;12.07;;;4.90;;
50549;SDS011;36505;52.512;13.460;2023-05-10T02:35:27;7.78;;;4.88;;
50549;SDS011;36505;52.512;13.460;2023-05-10T02:37:53;8.95;;;4.50;;
50549;SDS011;36505;52.512;13.460;2023-05-10T02:40:19;8.25;;;5.10;;
50549;SDS011;36505;52.512;13.460;2023-05-10T02:42:47;10.95;;;5.05;;
50549;SDS011;36505;52.512;13.460;2023-05-10T02:45:17;9.68;;;4.90;;
50549;SDS011;36505;52.512;13.460;2023-05-10T02:47:45;7.38;;;4.35;;
50549;SDS011;36505;52.512;13.460;2023-05-10T02:50:11;8.52;;;4.57;;
50549;SDS011;36505;52.512;13.460;2023-05-10T02:52:41;12.23;;;4.80;;
50549;SDS011;36505;52.512;13.460;2023-05-10T02:55:11;8.75;;;4.43;;
50549;SDS011;36505;52.512;13.460;2023-05-10T02:57:41;6.78;;;4.30;;
50549;SDS011;36505;52.512;13.460;2023-05-10T03:00:11;8.55;;;4.93;;
50549;SDS011;36505;52.512;13.460;2023-05-10T03:02:37;9.18;;;5.05;;
50549;SDS011;36505;52.512;13.460;2023-05-10T03:05:02;10.73;;;4.85;;
50549;SDS011;36505;52.512;13.460;2023-05-10T03:07:28;9.40;;;4.25;;
50549;SDS011;36505;52.512;13.460;2023-05-10T03:09:54;8.95;;;4.78;;
50549;SDS011;36505;52.512;13.460;2023-05-10T03:12:35;8.32;;;4.25;;
50549;SDS011;36505;52.512;13.460;2023-05-10T03:18:10;10.80;;;4.53;;
50549;SDS011;36505;52.512;13.460;2023-05-10T03:20:44;13.00;;;5.15;;
50549;SDS011;36505;52.512;13.460;2023-05-10T03:25:46;8.93;;;4.50;;
50549;SDS011;36505;52.512;13.460;2023-05-10T03:28:14;9.25;;;4.50;;
50549;SDS011;36505;52.512;13.460;2023-05-10T03:30:40;8.63;;;4.45;;
50549;SDS011;36505;52.512;13.460;2023-05-10T03:33:07;7.25;;;4.18;;
50549;SDS011;36505;52.512;13.460;2023-05-10T03:35:33;9.40;;;4.65;;
50549;SDS011;36505;52.512;13.460;2023-05-10T03:37:59;11.38;;;4.30;;
50549;SDS011;36505;52.512;13.460;2023-05-10T03:40:25;6.25;;;4.50;;
50549;SDS011;36505;52.512;13.460;2023-05-10T03:42:53;7.43;;;4.25;;
50549;SDS011;36505;52.512;13.460;2023-05-10T03:45:19;8.50;;;4.72;;
50549;SDS011;36505;52.512;13.460;2023-05-10T03:47:45;8.40;;;4.40;;
50549;SDS011;36505;52.512;13.460;2023-05-10T03:50:10;8.07;;;4.85;;
50549;SDS011;36505;52.512;13.460;2023-05-10T03:52:35;6.93;;;4.72;;
50549;SDS011;36505;52.512;13.460;2023-05-10T03:55:01;7.35;;;4.47;;
50549;SDS011;36505;52.512;13.460;2023-05-10T03:57:28;7.47;;;4.13;;
50549;SDS011;36505;52.512;13.460;2023-05-10T03:59:54;8.13;;;4.78;;
50549;SDS011;36505;52.512;13.460;2023-05-10T04:02:19;7.43;;;4.25;;
50549;SDS011;36505;52.512;13.460;2023-05-10T04:04:44;12.48;;;4.55;;
50549;SDS011;36505;52.512;13.460;2023-05-10T04:07:10;9.43;;;4.45;;
50549;SDS011;36505;52.512;13.460;2023-05-10T04:09:35;7.65;;;4.78;;
50549;SDS011;36505;52.512;13.460;2023-05-10T04:12:00;7.90;;;4.70;;
50549;SDS011;36505;52.512;13.460;2023-05-10T04:14:27;8.18;;;4.45;;
50549;SDS011;36505;52.512;13.460;2023-05-10T04:16:52;9.32;;;4.28;;
50549;SDS011;36505;52.512;13.460;2023-05-10T04:19:18;10.60;;;4.40;;
50549;SDS011;36505;52.512;13.460;2023-05-10T04:21:43;13.88;;;4.35;;
50549;SDS011;36505;52.512;13.460;2023-05-10T04:24:09;10.27;;;5.47;;
50549;SDS011;36505;52.512;13.460;2023-05-10T04:26:37;6.80;;;3.80;;
50549;SDS011;36505;52.512;13.460;2023-05-10T04:29:02;13.05;;;3.85;;
50549;SDS011;36505;52.512;13.460;2023-05-10T04:31:28;8.00;;;3.75;;
50549;SDS011;36505;52.512;13.460;2023-05-10T04:33:53;9.25;;;4.35;;
50549;SDS011;36505;52.512;13.460;2023-05-10T04:36:18;10.35;;;3.92;;
50549;SDS011;36505;52.512;13.460;2023-05-10T04:38:44;7.25;;;4.45;;
50549;SDS011;36505;52.512;13.460;2023-05-10T04:41:09;6.07;;;3.72;;
50549;SDS011;36505;52.512;13.460;2023-05-10T04:43:36;11.63;;;3.80;;
50549;SDS011;36505;52.512;13.460;2023-05-10T04:46:02;11.95;;;4.28;;
50549;SDS011;36505;52.512;13.460;2023-05-10T04:48:28;11.18;;;4.18;;
50549;SDS011;36505;52.512;13.460;2023-05-10T04:50:54;7.32;;;4.10;;
50549;SDS011;36505;52.512;13.460;2023-05-10T04:53:19;6.65;;;4.03;;
50549;SDS011;36505;52.512;13.460;2023-05-10T04:55:45;9.30;;;3.65;;
50549;SDS011;36505;52.512;13.460;2023-05-10T04:58:11;8.25;;;3.33;;
50549;SDS011;36505;52.512;13.460;2023-05-10T05:00:36;7.95;;;3.50;;
50549;SDS011;36505;52.512;13.460;2023-05-10T05:03:02;10.90;;;4.63;;
50549;SDS011;36505;52.512;13.460;2023-05-10T05:05:27;11.32;;;3.88;;
50549;SDS011;36505;52.512;13.460;2023-05-10T05:07:52;10.27;;;4.13;;
50549;SDS011;36505;52.512;13.460;2023-05-10T05:10:18;7.18;;;3.55;;
50549;SDS011;36505;52.512;13.460;2023-05-10T05:12:43;6.93;;;3.67;;
50549;SDS011;36505;52.512;13.460;2023-05-10T05:15:08;9.38;;;4.13;;
50549;SDS011;36505;52.512;13.460;2023-05-10T05:17:34;4.43;;;3.20;;
50549;SDS011;36505;52.512;13.460;2023-05-10T05:20:00;9.32;;;3.83;;
50549;SDS011;36505;52.512;13.460;2023-05-10T05:22:26;7.93;;;3.95;;
50549;SDS011;36505;52.512;13.460;2023-05-10T05:24:56;11.05;;;3.58;;
50549;SDS011;36505;52.512;13.460;2023-05-10T05:27:23;8.70;;;3.35;;
50549;SDS011;36505;52.512;13.460;2023-05-10T05:29:52;6.72;;;3.13;;
50549;SDS011;36505;52.512;13.460;2023-05-10T05:32:18;5.07;;;3.13;;
50549;SDS011;36505;52.512;13.460;2023-05-10T05:34:44;4.22;;;3.08;;
50549;SDS011;36505;52.512;13.460;2023-05-10T05:37:17;5.43;;;3.22;;
50549;SDS011;36505;52.512;13.460;2023-05-10T05:39:43;8.40;;;3.75;;
50549;SDS011;36505;52.512;13.460;2023-05-10T05:42:09;8.45;;;2.95;;
50549;SDS011;36505;52.512;13.460;2023-05-10T05:44:35;5.45;;;3.17;;
50549;SDS011;36505;52.512;13.460;2023-05-10T05:47:01;4.40;;;2.80;;
50549;SDS011;36505;52.512;13.460;2023-05-10T05:49:26;6.13;;;3.33;;
50549;SDS011;36505;52.512;13.460;2023-05-10T05:51:52;9.52;;;3.33;;
50549;SDS011;36505;52.512;13.460;2023-05-10T05:54:17;4.70;;;2.65;;
50549;SDS011;36505;52.512;13.460;2023-05-10T05:56:43;6.28;;;2.90;;
50549;SDS011;36505;52.512;13.460;2023-05-10T05:59:09;6.32;;;3.03;;
50549;SDS011;36505;52.512;13.460;2023-05-10T06:01:35;8.48;;;3.00;;
50549;SDS011;36505;52.512;13.460;2023-05-10T06:04:00;3.28;;;2.38;;
50549;SDS011;36505;52.512;13.460;2023-05-10T06:06:26;6.93;;;2.78;;
50549;SDS011;36505;52.512;13.460;2023-05-10T06:08:51;9.43;;;3.35;;
50549;SDS011;36505;52.512;13.460;2023-05-10T06:11:17;7.47;;;2.83;;
50549;SDS011;36505;52.512;13.460;2023-05-10T06:13:42;5.38;;;2.70;;
50549;SDS011;36505;52.512;13.460;2023-05-10T06:16:08;4.50;;;2.65;;
50549;SDS011;36505;52.512;13.460;2023-05-10T06:18:33;4.78;;;2.53;;
50549;SDS011;36505;52.512;13.460;2023-05-10T06:20:59;6.93;;;2.17;;
50549;SDS011;36505;52.512;13.460;2023-05-10T06:23:25;7.32;;;2.65;;
50549;SDS011;36505;52.512;13.460;2023-05-10T06:25:51;5.18;;;2.38;;
50549;SDS011;36505;52.512;13.460;2023-05-10T06:28:16;4.15;;;2.15;;
50549;SDS011;36505;52.512;13.460;2023-05-10T06:30:42;5.78;;;2.38;;
50549;SDS011;36505;52.512;13.460;2023-05-10T06:33:07;6.57;;;2.55;;
50549;SDS011;36505;52.512;13.460;2023-05-10T06:35:33;7.47;;;3.10;;
50549;SDS011;36505;52.512;13.460;2023-05-10T06:37:58;5.25;;;2.35;;
50549;SDS011;36505;52.512;13.460;2023-05-10T06:40:23;7.05;;;2.72;;
50549;SDS011;36505;52.512;13.460;2023-05-10T06:42:49;5.45;;;2.60;;
50549;SDS011;36505;52.512;13.460;2023-05-10T06:45:15;7.50;;;2.53;;
50549;SDS011;36505;52.512;13.460;2023-05-10T06:47:40;5.78;;;2.30;;
50549;SDS011;36505;52.512;13.460;2023-05-10T06:50:08;8.70;;;2.28;;
50549;SDS011;36505;52.512;13.460;2023-05-10T06:52:36;4.10;;;2.30;;
50549;SDS011;36505;52.512;13.460;2023-05-10T06:55:03;4.53;;;2.38;;
50549;SDS011;36505;52.512;13.460;2023-05-10T06:57:29;7.35;;;2.40;;
50549;SDS011;36505;52.512;13.460;2023-05-10T06:59:54;10.13;;;2.85;;
50549;SDS011;36505;52.512;13.460;2023-05-10T07:02:21;10.48;;;3.17;;
50549;SDS011;36505;52.512;13.460;2023-05-10T07:04:47;5.00;;;2.60;;
50549;SDS011;36505;52.512;13.460;2023-05-10T07:07:13;8.48;;;2.17;;
50549;SDS011;36505;52.512;13.460;2023-05-10T07:09:39;7.90;;;2.22;;
50549;SDS011;36505;52.512;13.460;2023-05-10T07:12:04;5.28;;;2.05;;
50549;SDS011;36505;52.512;13.460;2023-05-10T07:14:30;8.93;;;2.10;;
50549;SDS011;36505;52.512;13.460;2023-05-10T07:16:55;4.65;;;2.20;;
50549;SDS011;36505;52.512;13.460;2023-05-10T07:19:20;7.72;;;2.58;;
50549;SDS011;36505;52.512;13.460;2023-05-10T07:21:46;7.07;;;2.40;;
50549;SDS011;36505;52.512;13.460;2023-05-10T07:24:11;7.45;;;2.17;;
50549;SDS011;36505;52.512;13.460;2023-05-10T07:26:36;5.45;;;2.95;;
50549;SDS011;36505;52.512;13.460;2023-05-10T07:29:02;3.80;;;2.30;;
50549;SDS011;36505;52.512;13.460;2023-05-10T07:31:27;6.00;;;2.65;;
50549;SDS011;36505;52.512;13.460;2023-05-10T07:33:52;4.28;;;2.40;;
50549;SDS011;36505;52.512;13.460;2023-05-10T07:36:18;3.35;;;2.22;;
50549;SDS011;36505;52.512;13.460;2023-05-10T07:38:43;14.98;;;2.70;;
50549;SDS011;36505;52.512;13.460;2023-05-10T07:41:09;7.65;;;3.10;;
50549;SDS011;36505;52.512;13.460;2023-05-10T07:43:34;6.35;;;2.35;;
50549;SDS011;36505;52.512;13.460;2023-05-10T07:46:00;3.83;;;2.25;;
50549;SDS011;36505;52.512;13.460;2023-05-10T07:48:25;6.38;;;2.30;;
50549;SDS011;36505;52.512;13.460;2023-05-10T07:50:51;5.57;;;1.92;;
50549;SDS011;36505;52.512;13.460;2023-05-10T07:53:16;6.60;;;1.98;;
50549;SDS011;36505;52.512;13.460;2023-05-10T07:55:43;9.80;;;2.17;;
50549;SDS011;36505;52.512;13.460;2023-05-10T07:58:09;9.18;;;2.35;;
50549;SDS011;36505;52.512;13.460;2023-05-10T08:00:34;6.15;;;2.47;;
50549;SDS011;36505;52.512;13.460;2023-05-10T08:02:59;4.63;;;1.80;;
50549;SDS011;36505;52.512;13.460;2023-05-10T08:05:25;6.60;;;2.13;;
50549;SDS011;36505;52.512;13.460;2023-05-10T08:07:50;4.57;;;2.05;;
50549;SDS011;36505;52.512;13.460;2023-05-10T08:10:16;3.92;;;1.80;;
50549;SDS011;36505;52.512;13.460;2023-05-10T08:12:41;6.32;;;2.35;;
50549;SDS011;36505;52.512;13.460;2023-05-10T08:15:07;3.13;;;1.77;;
50549;SDS011;36505;52.512;13.460;2023-05-10T08:17:33;6.72;;;2.15;;
50549;SDS011;36505;52.512;13.460;2023-05-10T08:19:59;5.78;;;2.30;;
50549;SDS011;36505;52.512;13.460;2023-05-10T08:22:24;3.17;;;1.90;;
50549;SDS011;36505;52.512;13.460;2023-05-10T08:24:49;5.65;;;2.22;;
50549;SDS011;36505;52.512;13.460;2023-05-10T08:27:15;5.32;;;2.13;;
50549;SDS011;36505;52.512;13.460;2023-05-10T08:29:40;6.55;;;2.20;;
50549;SDS011;36505;52.512;13.460;2023-05-10T08:32:05;5.53;;;1.98;;
50549;SDS011;36505;52.512;13.460;2023-05-10T08:34:31;5.57;;;1.90;;
50549;SDS011;36505;52.512;13.460;2023-05-10T08:36:56;3.10;;;1.73;;
50549;SDS011;36505;52.512;13.460;2023-05-10T08:39:22;3.28;;;2.10;;
50549;SDS011;36505;52.512;13.460;2023-05-10T08:41:48;8.77;;;1.98;;
50549;SDS011;36505;52.512;13.460;2023-05-10T08:44:16;5.20;;;2.17;;
50549;SDS011;36505;52.512;13.460;2023-05-10T08:46:43;3.88;;;1.85;;
50549;SDS011;36505;52.512;13.460;2023-05-10T08:49:13;5.78;;;2.50;;
50549;SDS011;36505;52.512;13.460;2023-05-10T08:51:43;6.00;;;1.88;;
50549;SDS011;36505;52.512;13.460;2023-05-10T08:54:14;5.20;;;1.90;;
50549;SDS011;36505;52.512;13.460;2023-05-10T08:56:40;3.72;;;1.90;;
50549;SDS011;36505;52.512;13.460;2023-05-10T08:59:06;4.93;;;1.77;;
50549;SDS011;36505;52.512;13.460;2023-05-10T09:01:31;4.00;;;2.00;;
50549;SDS011;36505;52.512;13.460;2023-05-10T09:03:58;4.05;;;2.20;;
50549;SDS011;36505;52.512;13.460;2023-05-10T09:06:24;6.03;;;2.08;;
50549;SDS011;36505;52.512;13.460;2023-05-10T09:08:49;4.07;;;2.03;;
50549;SDS011;36505;52.512;13.460;2023-05-10T09:11:16;3.42;;;2.28;;
50549;SDS011;36505;52.512;13.460;2023-05-10T09:13:42;7.10;;;2.40;;
50549;SDS011;36505;52.512;13.460;2023-05-10T09:16:08;4.55;;;2.08;;
50549;SDS011;36505;52.512;13.460;2023-05-10T09:18:34;7.05;;;2.72;;
50549;SDS011;36505;52.512;13.460;2023-05-10T09:21:00;7.68;;;1.80;;
50549;SDS011;36505;52.512;13.460;2023-05-10T09:23:25;3.97;;;1.83;;
50549;SDS011;36505;52.512;13.460;2023-05-10T09:26:03;5.55;;;2.33;;
50549;SDS011;36505;52.512;13.460;2023-05-10T09:28:49;4.60;;;2.30;;
50549;SDS011;36505;52.512;13.460;2023-05-10T09:31:19;6.75;;;2.58;;
50549;SDS011;36505;52.512;13.460;2023-05-10T09:33:45;5.35;;;2.35;;
50549;SDS011;36505;52.512;13.460;2023-05-10T09:36:11;4.22;;;2.22;;
50549;SDS011;36505;52.512;13.460;2023-05-10T09:41:16;6.57;;;2.83;;
50549;SDS011;36505;52.512;13.460;2023-05-10T09:43:46;9.02;;;2.25;;
50549;SDS011;36505;52.512;13.460;2023-05-10T09:46:12;6.15;;;2.45;;
50549;SDS011;36505;52.512;13.460;2023-05-10T09:48:41;5.35;;;2.50;;
50549;SDS011;36505;52.512;13.460;2023-05-10T09:51:08;4.90;;;2.65;;
50549;SDS011;36505;52.512;13.460;2023-05-10T09:53:34;8.82;;;2.97;;
50549;SDS011;36505;52.512;13.460;2023-05-10T09:55:59;4.07;;;2.03;;
50549;SDS011;36505;52.512;13.460;2023-05-10T09:58:24;3.95;;;2.63;;
50549;SDS011;36505;52.512;13.460;2023-05-10T10:00:50;4.95;;;2.50;;
50549;SDS011;36505;52.512;13.460;2023-05-10T10:03:18;7.13;;;2.72;;
50549;SDS011;36505;52.512;13.460;2023-05-10T10:05:45;5.05;;;2.30;;
50549;SDS011;36505;52.512;13.460;2023-05-10T10:08:12;5.30;;;2.30;;
50549;SDS011;36505;52.512;13.460;2023-05-10T10:10:38;5.55;;;2.15;;
50549;SDS011;36505;52.512;13.460;2023-05-10T10:13:05;5.10;;;2.42;;
50549;SDS011;36505;52.512;13.460;2023-05-10T10:15:31;5.43;;;2.30;;
50549;SDS011;36505;52.512;13.460;2023-05-10T10:17:58;4.85;;;2.17;;
50549;SDS011;36505;52.512;13.460;2023-05-10T10:20:26;7.97;;;2.10;;
50549;SDS011;36505;52.512;13.460;2023-05-10T10:22:52;4.90;;;2.05;;
50549;SDS011;36505;52.512;13.460;2023-05-10T10:25:18;3.58;;;2.00;;
50549;SDS011;36505;52.512;13.460;2023-05-10T10:35:28;9.23;;;2.73;;
50549;SDS011;36505;52.512;13.460;2023-05-10T10:37:54;4.35;;;2.33;;
50549;SDS011;36505;52.512;13.460;2023-05-10T10:40:27;3.75;;;2.40;;
50549;SDS011;36505;52.512;13.460;2023-05-10T10:42:53;9.68;;;2.10;;
50549;SDS011;36505;52.512;13.460;2023-05-10T10:45:19;3.80;;;2.28;;
50549;SDS011;36505;52.512;13.460;2023-05-10T10:47:47;5.43;;;1.88;;
50549;SDS011;36505;52.512;13.460;2023-05-10T10:50:13;4.65;;;2.38;;
50549;SDS011;36505;52.512;13.460;2023-05-10T10:52:44;6.93;;;2.13;;
50549;SDS011;36505;52.512;13.460;2023-05-10T11:02:47;7.60;;;2.75;;
50549;SDS011;36505;52.512;13.460;2023-05-10T11:07:57;4.53;;;2.17;;
50549;SDS011;36505;52.512;13.460;2023-05-10T11:10:24;6.25;;;2.60;;
50549;SDS011;36505;52.512;13.460;2023-05-10T11:12:59;5.03;;;2.30;;
50549;SDS011;36505;52.512;13.460;2023-05-10T11:15:30;4.55;;;2.22;;
50549;SDS011;36505;52.512;13.460;2023-05-10T11:17:55;4.00;;;2.65;;
50549;SDS011;36505;52.512;13.460;2023-05-10T11:20:21;6.25;;;2.90;;
50549;SDS011;36505;52.512;13.460;2023-05-10T11:22:52;3.88;;;2.40;;
50549;SDS011;36505;52.512;13.460;2023-05-10T11:25:27;10.13;;;3.30;;
50549;SDS011;36505;52.512;13.460;2023-05-10T11:27:53;4.87;;;2.13;;
50549;SDS011;36505;52.512;13.460;2023-05-10T11:30:18;3.50;;;1.90;;
50549;SDS011;36505;52.512;13.460;2023-05-10T11:32:44;6.97;;;2.30;;
50549;SDS011;36505;52.512;13.460;2023-05-10T11:35:10;3.80;;;2.00;;
50549;SDS011;36505;52.512;13.460;2023-05-10T11:37:36;5.18;;;2.25;;
50549;SDS011;36505;52.512;13.460;2023-05-10T11:40:07;5.50;;;2.30;;
50549;SDS011;36505;52.512;13.460;2023-05-10T11:42:35;8.10;;;2.42;;
50549;SDS011;36505;52.512;13.460;2023-05-10T11:45:04;2.05;;;1.73;;
50549;SDS011;36505;52.512;13.460;2023-05-10T11:47:30;5.35;;;2.33;;
50549;SDS011;36505;52.512;13.460;2023-05-10T11:49:55;7.38;;;2.40;;
50549;SDS011;36505;52.512;13.460;2023-05-10T11:52:23;13.30;;;2.38;;
50549;SDS011;36505;52.512;13.460;2023-05-10T11:54:52;6.55;;;2.03;;
50549;SDS011;36505;52.512;13.460;2023-05-10T11:57:18;12.48;;;2.30;;
50549;SDS011;36505;52.512;13.460;2023-05-10T11:59:45;11.07;;;2.88;;
50549;SDS011;36505;52.512;13.460;2023-05-10T12:02:12;5.15;;;2.45;;
50549;SDS011;36505;52.512;13.460;2023-05-10T12:04:38;8.35;;;2.03;;
50549;SDS011;36505;52.512;13.460;2023-05-10T12:07:04;5.30;;;2.50;;
50549;SDS011;36505;52.512;13.460;2023-05-10T12:09:30;5.30;;;2.40;;
50549;SDS011;36505;52.512;13.460;2023-05-10T12:11:55;17.50;;;2.40;;
50549;SDS011;36505;52.512;13.460;2023-05-10T12:14:22;8.27;;;2.75;;
50549;SDS011;36505;52.512;13.460;2023-05-10T12:16:47;9.93;;;1.90;;
50549;SDS011;36505;52.512;13.460;2023-05-10T12:19:13;6.03;;;2.08;;
50549;SDS011;36505;52.512;13.460;2023-05-10T12:21:44;7.70;;;2.10;;
50549;SDS011;36505;52.512;13.460;2023-05-10T12:24:10;5.45;;;1.95;;
50549;SDS011;36505;52.512;13.460;2023-05-10T12:26:35;23.15;;;3.03;;
50549;SDS011;36505;52.512;13.460;2023-05-10T12:29:17;5.82;;;2.13;;
50549;SDS011;36505;52.512;13.460;2023-05-10T12:34:26;6.07;;;2.35;;
50549;SDS011;36505;52.512;13.460;2023-05-10T12:36:55;3.42;;;2.15;;
50549;SDS011;36505;52.512;13.460;2023-05-10T12:39:20;4.72;;;2.05;;
50549;SDS011;36505;52.512;13.460;2023-05-10T12:41:46;4.57;;;2.00;;
50549;SDS011;36505;52.512;13.460;2023-05-10T12:44:11;4.00;;;2.05;;
50549;SDS011;36505;52.512;13.460;2023-05-10T12:46:37;10.80;;;2.40;;
50549;SDS011;36505;52.512;13.460;2023-05-10T12:49:02;8.90;;;2.22;;
50549;SDS011;36505;52.512;13.460;2023-05-10T12:51:27;2.75;;;1.60;;
50549;SDS011;36505;52.512;13.460;2023-05-10T12:53:53;4.65;;;1.80;;
50549;SDS011;36505;52.512;13.460;2023-05-10T12:56:19;8.70;;;2.35;;
50549;SDS011;36505;52.512;13.460;2023-05-10T12:58:45;5.43;;;1.80;;
50549;SDS011;36505;52.512;13.460;2023-05-10T13:01:13;8.93;;;2.20;;
50549;SDS011;36505;52.512;13.460;2023-05-10T13:03:38;5.65;;;2.40;;
50549;SDS011;36505;52.512;13.460;2023-05-10T13:06:04;6.72;;;1.92;;
50549;SDS011;36505;52.512;13.460;2023-05-10T13:08:30;6.18;;;2.00;;
50549;SDS011;36505;52.512;13.460;2023-05-10T13:10:58;3.67;;;2.03;;
50549;SDS011;36505;52.512;13.460;2023-05-10T13:13:24;8.35;;;1.90;;
50549;SDS011;36505;52.512;13.460;2023-05-10T13:15:50;5.15;;;2.00;;
50549;SDS011;36505;52.512;13.460;2023-05-10T13:18:15;12.30;;;4.00;;
50549;SDS011;36505;52.512;13.460;2023-05-10T13:20:40;22.30;;;3.05;;
50549;SDS011;36505;52.512;13.460;2023-05-10T13:23:06;25.20;;;3.13;;
50549;SDS011;36505;52.512;13.460;2023-05-10T13:25:31;7.93;;;2.63;;
50549;SDS011;36505;52.512;13.460;2023-05-10T13:27:56;9.93;;;2.20;;
50549;SDS011;36505;52.512;13.460;2023-05-10T13:30:22;4.65;;;1.88;;
50549;SDS011;36505;52.512;13.460;2023-05-10T13:32:48;5.22;;;2.30;;
50549;SDS011;36505;52.512;13.460;2023-05-10T13:35:14;6.18;;;2.53;;
50549;SDS011;36505;52.512;13.460;2023-05-10T13:37:39;6.18;;;1.80;;
50549;SDS011;36505;52.512;13.460;2023-05-10T13:40:05;3.25;;;1.80;;
50549;SDS011;36505;52.512;13.460;2023-05-10T13:42:31;10.82;;;2.72;;
50549;SDS011;36505;52.512;13.460;2023-05-10T13:44:58;3.53;;;1.77;;
50549;SDS011;36505;52.512;13.460;2023-05-10T13:47:24;6.65;;;2.25;;
50549;SDS011;36505;52.512;13.460;2023-05-10T13:49:49;4.60;;;2.10;;
50549;SDS011;36505;52.512;13.460;2023-05-10T13:52:15;2.90;;;1.77;;
50549;SDS011;36505;52.512;13.460;2023-05-10T13:54:40;4.50;;;1.80;;
50549;SDS011;36505;52.512;13.460;2023-05-10T13:57:06;8.32;;;2.60;;
50549;SDS011;36505;52.512;13.460;2023-05-10T13:59:31;5.15;;;1.95;;
50549;SDS011;36505;52.512;13.460;2023-05-10T14:01:57;4.65;;;2.00;;
50549;SDS011;36505;52.512;13.460;2023-05-10T14:04:23;5.35;;;1.80;;
50549;SDS011;36505;52.512;13.460;2023-05-10T14:06:49;4.55;;;2.08;;
50549;SDS011;36505;52.512;13.460;2023-05-10T14:09:14;4.15;;;2.00;;
50549;SDS011;36505;52.512;13.460;2023-05-10T14:11:40;3.55;;;2.00;;
50549;SDS011;36505;52.512;13.460;2023-05-10T14:14:08;4.28;;;1.77;;
50549;SDS011;36505;52.512;13.460;2023-05-10T14:16:36;4.65;;;2.10;;
50549;SDS011;36505;52.512;13.460;2023-05-10T14:19:02;3.65;;;2.15;;
50549;SDS011;36505;52.512;13.460;2023-05-10T14:21:27;9.88;;;2.28;;
50549;SDS011;36505;52.512;13.460;2023-05-10T14:23:56;11.32;;;3.05;;
50549;SDS011;36505;52.512;13.460;2023-05-10T14:26:22;9.80;;;2.83;;
50549;SDS011;36505;52.512;13.460;2023-05-10T14:28:47;4.60;;;2.20;;
50549;SDS011;36505;52.512;13.460;2023-05-10T14:31:13;2.88;;;1.98;;
50549;SDS011;36505;52.512;13.460;2023-05-10T14:33:39;2.60;;;1.88;;
50549;SDS011;36505;52.512;13.460;2023-05-10T14:36:05;6.75;;;1.80;;
50549;SDS011;36505;52.512;13.460;2023-05-10T14:38:31;4.63;;;2.50;;
50549;SDS011;36505;52.512;13.460;2023-05-10T14:40:56;4.85;;;1.92;;
50549;SDS011;36505;52.512;13.460;2023-05-10T14:43:22;4.63;;;1.48;;
50549;SDS011;36505;52.512;13.460;2023-05-10T14:45:47;3.38;;;2.15;;
50549;SDS011;36505;52.512;13.460;2023-05-10T14:48:13;3.13;;;1.80;;
50549;SDS011;36505;52.512;13.460;2023-05-10T14:50:41;3.30;;;2.15;;
50549;SDS011;36505;52.512;13.460;2023-05-10T14:53:06;5.40;;;1.83;;
50549;SDS011;36505;52.512;13.460;2023-05-10T14:55:31;6.30;;;1.65;;
50549;SDS011;36505;52.512;13.460;2023-05-10T14:57:57;3.80;;;1.88;;
50549;SDS011;36505;52.512;13.460;2023-05-10T15:00:23;9.15;;;2.40;;
50549;SDS011;36505;52.512;13.460;2023-05-10T15:02:48;6.97;;;1.88;;
50549;SDS011;36505;52.512;13.460;2023-05-10T15:05:14;5.20;;;1.55;;
50549;SDS011;36505;52.512;13.460;2023-05-10T15:07:40;3.55;;;2.10;;
50549;SDS011;36505;52.512;13.460;2023-05-10T15:10:05;3.72;;;1.90;;
50549;SDS011;36505;52.512;13.460;2023-05-10T15:12:31;5.82;;;2.05;;
50549;SDS011;36505;52.512;13.460;2023-05-10T15:14:57;5.88;;;1.80;;
50549;SDS011;36505;52.512;13.460;2023-05-10T15:17:22;6.22;;;2.22;;
50549;SDS011;36505;52.512;13.460;2023-05-10T15:19:47;6.55;;;2.10;;